Contact Us:
Email: info@sawbill.com
Phone: (218)663-7150
Fax: (218)663-7980
Mail: 4620 Sawbill Trail
Box 2129
Tofte, MN 55615


Powered by
Movable Type 3.15
 
Sawbill Weather History Archives: September 2015
Current Sawbill Weather History | « August 2015 | October 2015 »


Date

High
Temperature

Low
Temperature

Barometric
Pressure

Relative
Humidity 7AM

9 AM
Temperature

Moisture

Snow

9/30/15 56 35 30.40 81% 37 0
9/29/15 56 33 30.26 78% 33 0
9/28/15 65 36 30.14 63% 37 0
9/27/15 72 55 29.98 86% 56 Trace
9/26/15 67 52 30.20 98% 56 0
9/25/15 59 50 30.24 98% 52 .01"
9/24/15 55 50 30.28 96% 54 .02"
9/23/15 51 49 30.08 85% 50 .2"
9/22/15 63 48 30.10 75% 51 0
9/21/15 70 46 30.10 62% 48 0
9/20/15 58 47 30.10 79% 48 0
9/19/15 69 48 30.10 91% 52 0
9/18/15 60 47 30.30 91% 48 .02"
9/17/15 67 50 29.92 82% 54 .57"
9/16/15 74 62 29.84 98% 67 0
9/15/15 73 55 29.96 67% 63 0
9/14/15 73 51 29.98 86% 55 0
9/13/15 72 45 29.86 79% 52 0
9/12/15 61 37 29.98 76% 45 0
9/11/15 56 37 30.10 75% 37 0
9/10/15 59 45 30.10 77% 45 .02"
9/9/15 65 46 30.00 78% 47 0
9/8/15 69 47 30.00 75% 49 0
9/7/15 71 54 29.98 81% 54 0
9/6/15 78 65 30.00 89% 65 .12"
9/5/15 78 63 29.92 98% 67 1.35"
9/4/15 75 53 30.04 91% 64 .06"
9/3/15 74 53 30.06 78% 53 0
9/2/15 75 56 31.00 78% 56 .02"
9/1/15 80 50 30.04 90% 54 0
 


Home I Trip Planning I Rentals and Outfitting I Reservations I Campgrounds I Sawbill Store I Sawbill News I Contact

© 1997 - 2017, Sawbill Canoe Outfitters, Inc. I Privacy Policy